Impacts METAR Board
IDs:

KMDW - Chicago/Midway Intl, IL, US

Updated at: 2100 UTC 01 Feb 2023
Potential Impact None Slight Moderate High
Time 01/09Z 01/10Z 01/11Z 01/12Z 01/13Z 01/14Z 01/15Z 01/16Z 01/17Z 01/18Z 01/19Z 01/20Z 01/21Z
Temp6 6 6 7 8 9 13 18 20 24 25 27 27
Dewpt-4 -4 -3 -1 -2 -1 1 3 5 6 6 5 7
Altim30.36 30.35 30.36 30.36 30.35 30.36 30.37 30.37 30.37 30.34 30.30 30.28 30.26
VIS10 10 10 10 10 10 10 10 10 10 10 10 10
CIG-- -- -- -- -- -- -- -- -- -- -- -- --
CoverCLRCLRCLRCLRFEWFEWFEWFEWFEWFEWFEWFEWFEW
FltCatVFRVFRVFRVFRVFRVFRVFRVFRVFRVFRVFRVFRVFR
WX--------------------------
WDir230230210210220220220220210240230230230
WSpd7 5 6 6 7 7 9 8 11 12 13 14 11
WGst-- -- -- -- -- -- -- -- -- -- -- -- --
Raw hourly METARs
KMDW 010853Z 23007KT 10SM CLR M14/M20 A3036 RMK AO2 SLP303 T11441200 56003
KMDW 010953Z 23005KT 10SM CLR M14/M20 A3035 RMK AO2 SLP301 T11441200
KMDW 011053Z 21006KT 10SM CLR M14/M19 A3036 RMK AO2 SLP303 T11441194
KMDW 011153Z 21006KT 10SM CLR M14/M18 A3036 RMK AO2 SLP304 4/001 T11391183 11133 21144 53001
KMDW 011253Z 22007KT 10SM FEW250 M13/M19 A3035 RMK AO2 SLP303 T11331189
KMDW 011353Z 22007KT 10SM FEW250 M13/M18 A3036 RMK AO2 SLP307 T11281183
KMDW 011453Z 22009KT 10SM FEW250 M11/M17 A3037 RMK AO2 SLP307 T11061172 53003
KMDW 011553Z 22008KT 10SM FEW250 M08/M16 A3037 RMK AO2 SLP305 T10781161
KMDW 011653Z 21011KT 10SM FEW250 M07/M15 A3037 RMK AO2 SLP306 T10671150
KMDW 011753Z 24012KT 10SM FEW250 M04/M14 A3034 RMK AO2 SLP296 4/001 T10441144 11044 21139 58008
KMDW 011853Z 23013KT 10SM FEW250 M04/M14 A3030 RMK AO2 SLP281 T10391144
KMDW 011953Z 23014KT 10SM FEW250 M03/M15 A3028 RMK AO2 SLP272 T10281150
KMDW 012053Z 23011KT 10SM FEW250 M03/M14 A3026 RMK AO2 SLP267 T10281139 56027



Page loaded:  21:35 UTC  |   01:35 PM Pacific  |   02:35 PM Mountain  |   03:35 PM Central  |   04:35 PM Eastern

 

ADVISORIES

FORECASTS

FORECASTS

OBSERVATIONS

USER TOOLS

ABOUT US